createdAt,value
2023-04-16T00:00:49.793Z,6.40
2023-04-16T00:05:56.011Z,6.60
2023-04-16T00:10:59.068Z,6.73
2023-04-16T00:16:02.074Z,5.53
2023-04-16T00:21:05.524Z,6.33
2023-04-16T00:26:09.232Z,6.73
2023-04-16T00:31:12.277Z,7.00
2023-04-16T00:36:15.257Z,6.30
2023-04-16T00:41:18.287Z,10.90
2023-04-16T00:46:23.869Z,7.80
2023-04-16T00:51:27.172Z,9.23
2023-04-16T00:56:31.062Z,8.30
2023-04-16T01:01:34.043Z,8.70
2023-04-16T01:06:36.853Z,8.77
2023-04-16T01:11:39.897Z,7.23
2023-04-16T01:16:42.879Z,7.67
2023-04-16T01:21:46.742Z,10.90
2023-04-16T01:26:49.793Z,10.40
2023-04-16T01:31:52.829Z,8.47
2023-04-16T01:36:55.936Z,7.40
2023-04-16T01:41:58.820Z,8.47
2023-04-16T01:47:01.833Z,8.97
2023-04-16T01:52:05.092Z,8.37
2023-04-16T01:57:08.212Z,10.13
2023-04-16T02:02:14.852Z,10.13
2023-04-16T02:07:17.734Z,10.13
2023-04-16T02:12:20.923Z,8.73
2023-04-16T02:17:23.911Z,9.87
2023-04-16T02:22:26.839Z,9.73
2023-04-16T02:27:30.169Z,12.57
2023-04-16T02:32:33.292Z,15.60
2023-04-16T02:37:36.049Z,10.90
2023-04-16T02:42:38.935Z,10.33
2023-04-16T02:47:42.018Z,11.33
2023-04-16T02:52:45.052Z,13.80
2023-04-16T02:57:48.015Z,10.20
2023-04-16T03:02:51.245Z,11.93
2023-04-16T03:07:56.820Z,11.53
2023-04-16T03:13:00.407Z,9.83
2023-04-16T03:18:03.716Z,8.37
2023-04-16T03:23:06.706Z,7.40
2023-04-16T03:28:09.598Z,8.50
2023-04-16T03:33:12.541Z,8.70
2023-04-16T03:38:15.633Z,16.90
2023-04-16T03:43:18.649Z,11.63
2023-04-16T03:48:21.521Z,14.03
2023-04-16T03:53:24.563Z,12.80
2023-04-16T03:58:27.459Z,11.73
2023-04-16T04:03:30.760Z,11.50
2023-04-16T04:08:33.959Z,8.97
2023-04-16T04:13:36.904Z,10.63
2023-04-16T04:18:39.937Z,9.40
2023-04-16T04:23:43.791Z,8.70
2023-04-16T04:28:47.220Z,8.90
2023-04-16T04:33:50.145Z,8.17
2023-04-16T04:38:53.056Z,8.67
2023-04-16T04:43:55.850Z,8.27
2023-04-16T04:48:58.829Z,9.40
2023-04-16T04:54:01.868Z,9.23
2023-04-16T04:59:04.869Z,10.87
2023-04-16T05:04:07.893Z,12.80
2023-04-16T05:09:13.966Z,11.43
2023-04-16T05:14:17.288Z,15.40
2023-04-16T05:19:20.607Z,11.20
2023-04-16T05:24:23.588Z,10.50
2023-04-16T05:29:26.627Z,10.87
2023-04-16T05:34:29.600Z,12.17
2023-04-16T05:39:32.564Z,8.37
2023-04-16T05:44:35.562Z,9.57
2023-04-16T05:49:38.476Z,13.93
2023-04-16T05:54:41.491Z,10.13
2023-04-16T05:59:44.523Z,11.20
2023-04-16T06:04:47.478Z,10.23
2023-04-16T06:09:50.507Z,12.00
2023-04-16T06:14:53.540Z,17.90
2023-04-16T06:19:56.490Z,12.00
2023-04-16T06:24:59.418Z,11.57
2023-04-16T06:30:02.323Z,10.97
2023-04-16T06:35:06.345Z,12.53
2023-04-16T06:40:10.303Z,12.80
2023-04-16T06:45:13.748Z,7.97
2023-04-16T06:50:16.815Z,9.00
2023-04-16T06:55:19.594Z,9.53
2023-04-16T07:00:22.503Z,9.83
2023-04-16T07:05:26.221Z,8.20
2023-04-16T07:10:29.354Z,7.93
2023-04-16T07:15:32.896Z,9.23
2023-04-16T07:20:36.366Z,7.10
2023-04-16T07:25:40.172Z,6.53
2023-04-16T07:30:43.842Z,12.07
2023-04-16T07:35:47.460Z,12.40
2023-04-16T07:40:50.652Z,10.50
2023-04-16T07:45:53.622Z,6.97
2023-04-16T07:50:56.950Z,8.37
2023-04-16T07:56:00.164Z,6.47
2023-04-16T08:01:03.244Z,5.13
2023-04-16T08:06:06.787Z,4.67
2023-04-16T08:11:09.954Z,4.07
2023-04-16T08:16:12.863Z,3.78
2023-04-16T08:21:16.033Z,3.72
2023-04-16T08:26:18.980Z,3.58
2023-04-16T08:31:22.391Z,2.85
2023-04-16T08:36:25.745Z,2.80
2023-04-16T08:41:32.324Z,2.10
2023-04-16T08:46:38.749Z,1.83
2023-04-16T08:51:44.452Z,1.40
2023-04-16T08:56:49.325Z,1.55
2023-04-16T09:01:57.712Z,1.52
2023-04-16T09:07:02.436Z,1.48
2023-04-16T09:12:05.721Z,1.73
2023-04-16T09:17:09.925Z,2.13
2023-04-16T09:22:13.100Z,1.52
2023-04-16T09:27:17.115Z,1.50
2023-04-16T09:32:27.400Z,1.33
2023-04-16T09:42:37.242Z,0.95
2023-04-16T09:47:45.964Z,1.00
2023-04-16T09:52:53.564Z,0.90
2023-04-16T09:58:01.449Z,1.13
2023-04-16T10:03:07.192Z,1.08
2023-04-16T10:08:14.675Z,1.00
2023-04-16T10:13:19.204Z,1.52
2023-04-16T10:18:23.300Z,0.95
2023-04-16T10:23:27.216Z,1.65
2023-04-16T10:28:31.157Z,3.00
2023-04-16T10:33:37.316Z,1.00
2023-04-16T10:38:49.830Z,1.00
2023-04-16T10:43:54.136Z,1.17
2023-04-16T10:49:12.793Z,1.13
2023-04-16T10:54:21.387Z,1.40
2023-04-16T10:59:25.769Z,3.22
2023-04-16T11:04:34.492Z,1.25
2023-04-16T11:09:59.957Z,0.80
2023-04-16T11:15:08.987Z,1.00
2023-04-16T11:20:28.739Z,0.73
2023-04-16T11:25:34.043Z,0.90
2023-04-16T11:30:39.066Z,0.82
2023-04-16T11:35:43.440Z,0.70
2023-04-16T11:40:49.928Z,0.60
2023-04-16T11:46:12.928Z,0.60
2023-04-16T11:51:24.003Z,0.80
2023-04-16T11:56:33.231Z,0.70
2023-04-16T12:01:38.108Z,0.90
2023-04-16T12:06:41.299Z,0.70
2023-04-16T12:11:44.596Z,0.82
2023-04-16T12:16:47.848Z,0.80
2023-04-16T12:21:51.282Z,1.15
2023-04-16T12:27:03.242Z,0.70
2023-04-16T12:32:23.377Z,0.60
2023-04-16T12:37:26.798Z,0.70
2023-04-16T12:42:35.656Z,0.82
2023-04-16T12:47:38.621Z,0.60
2023-04-16T12:52:41.742Z,0.93
2023-04-16T12:57:45.056Z,0.77
2023-04-16T13:02:48.270Z,0.50
2023-04-16T13:07:51.500Z,0.88
2023-04-16T13:12:54.448Z,0.68
2023-04-16T13:17:57.371Z,0.60
2023-04-16T13:23:01.052Z,0.60
2023-04-16T13:28:04.012Z,0.60
2023-04-16T13:33:06.979Z,0.70
2023-04-16T13:38:10.182Z,1.05
2023-04-16T13:43:14.052Z,1.23
2023-04-16T13:48:17.946Z,2.10
2023-04-16T13:53:22.026Z,0.73
2023-04-16T13:58:25.288Z,0.50
2023-04-16T14:03:28.974Z,0.57
2023-04-16T14:08:32.349Z,0.60
2023-04-16T14:13:35.363Z,0.73
2023-04-16T14:18:42.454Z,0.70
2023-04-16T14:23:45.599Z,0.57
2023-04-16T14:28:48.599Z,1.00
2023-04-16T14:33:51.634Z,0.73
2023-04-16T14:38:54.624Z,1.10
2023-04-16T14:43:59.298Z,0.68
2023-04-16T14:49:02.289Z,0.52
2023-04-16T14:54:05.384Z,0.55
2023-04-16T14:59:08.436Z,0.40
2023-04-16T15:04:11.846Z,1.85
2023-04-16T15:09:14.840Z,1.13
2023-04-16T15:14:18.410Z,0.60
2023-04-16T15:19:21.586Z,0.65
2023-04-16T15:24:26.223Z,0.50
2023-04-16T15:29:30.434Z,0.70
2023-04-16T15:34:33.379Z,0.50
2023-04-16T15:39:36.389Z,0.60
2023-04-16T15:44:39.406Z,0.50
2023-04-16T15:49:42.499Z,0.60
2023-04-16T15:54:45.875Z,0.50
2023-04-16T15:59:59.583Z,0.60
2023-04-16T16:05:12.124Z,0.60
2023-04-16T16:10:15.292Z,0.60
2023-04-16T16:15:18.343Z,0.70
2023-04-16T16:20:22.743Z,1.25
2023-04-16T16:25:25.610Z,1.40
2023-04-16T16:30:28.353Z,1.27
2023-04-16T16:35:31.879Z,1.15
2023-04-16T16:40:34.769Z,1.60
2023-04-16T16:45:38.448Z,4.10
2023-04-16T16:50:41.206Z,1.40
2023-04-16T16:55:44.205Z,1.20
2023-04-16T17:00:47.160Z,1.20
2023-04-16T17:05:50.393Z,1.20
2023-04-16T17:10:53.300Z,1.67
2023-04-16T17:15:56.255Z,1.55
2023-04-16T17:20:59.220Z,3.50
2023-04-16T17:26:03.258Z,5.07
2023-04-16T17:31:08.525Z,2.50
2023-04-16T17:36:11.535Z,1.80
2023-04-16T17:41:14.545Z,1.70
2023-04-16T17:46:17.577Z,3.20
2023-04-16T17:51:20.565Z,2.20
2023-04-16T17:56:23.784Z,1.70
2023-04-16T18:01:27.605Z,2.73
2023-04-16T18:06:30.996Z,6.40
2023-04-16T18:11:34.119Z,3.00
2023-04-16T18:16:37.073Z,1.70
2023-04-16T18:21:40.000Z,1.23
2023-04-16T18:26:45.705Z,2.00
2023-04-16T18:31:50.740Z,1.90
2023-04-16T18:36:53.756Z,1.70
2023-04-16T18:41:57.644Z,1.67
2023-04-16T18:47:00.694Z,1.80
2023-04-16T18:52:03.674Z,2.00
2023-04-16T18:57:06.900Z,1.30
2023-04-16T19:02:10.088Z,1.53
2023-04-16T19:07:13.179Z,1.90
2023-04-16T19:12:16.230Z,1.33
2023-04-16T19:17:19.208Z,1.70
2023-04-16T19:22:22.125Z,4.00
2023-04-16T19:27:28.469Z,3.33
2023-04-16T19:32:32.037Z,2.00
2023-04-16T19:37:35.101Z,1.40
2023-04-16T19:42:38.096Z,1.83
2023-04-16T19:47:41.187Z,3.70
2023-04-16T19:52:44.308Z,4.87
2023-04-16T19:57:48.387Z,2.93
2023-04-16T20:02:51.480Z,1.47
2023-04-16T20:07:55.897Z,1.53
2023-04-16T20:13:00.425Z,1.00
2023-04-16T20:18:04.120Z,1.00
2023-04-16T20:23:07.076Z,0.90
2023-04-16T20:28:10.261Z,0.97
2023-04-16T20:33:13.173Z,1.00
2023-04-16T20:38:16.279Z,0.90
2023-04-16T20:43:19.320Z,1.00
2023-04-16T20:48:22.372Z,0.90
2023-04-16T20:53:25.409Z,0.93
2023-04-16T20:58:28.975Z,0.90
2023-04-16T21:03:32.138Z,1.00
2023-04-16T21:08:35.515Z,1.13
2023-04-16T21:13:38.451Z,1.00
2023-04-16T21:18:41.614Z,1.10
2023-04-16T21:23:44.622Z,1.00
2023-04-16T21:28:48.393Z,1.37
2023-04-16T21:33:51.412Z,0.90
2023-04-16T21:38:54.519Z,1.10
2023-04-16T21:43:57.489Z,1.00
2023-04-16T21:49:00.811Z,0.70
2023-04-16T21:54:03.865Z,1.40
2023-04-16T21:59:06.727Z,0.93
2023-04-16T22:04:10.044Z,0.90
2023-04-16T22:09:13.352Z,0.90
2023-04-16T22:14:17.797Z,0.70
2023-04-16T22:19:21.729Z,0.90
2023-04-16T22:24:24.794Z,0.90
2023-04-16T22:29:27.570Z,0.60
2023-04-16T22:34:30.607Z,0.73
2023-04-16T22:39:34.205Z,0.80
2023-04-16T22:44:37.240Z,0.70
2023-04-16T22:49:40.165Z,0.70
2023-04-16T22:54:43.096Z,0.80
2023-04-16T22:59:46.326Z,0.70
2023-04-16T23:04:49.327Z,0.80
2023-04-16T23:09:52.294Z,0.67
2023-04-16T23:14:55.295Z,1.10
2023-04-16T23:19:58.366Z,0.90
2023-04-16T23:25:01.440Z,0.90
2023-04-16T23:30:05.876Z,0.90
2023-04-16T23:35:11.140Z,0.90
2023-04-16T23:40:14.261Z,0.70
2023-04-16T23:45:17.212Z,1.03
2023-04-16T23:50:20.163Z,0.87
2023-04-16T23:55:23.358Z,0.70
